createdAt,value
2018-05-31T00:00:41.850Z,18.74
2018-05-31T00:03:10.265Z,18.79
2018-05-31T00:05:38.697Z,18.73
2018-05-31T00:08:07.106Z,18.68
2018-05-31T00:10:35.530Z,18.62
2018-05-31T00:13:03.923Z,18.52
2018-05-31T00:15:33.108Z,18.47
2018-05-31T00:18:01.540Z,18.40
2018-05-31T00:20:29.927Z,18.37
2018-05-31T00:22:58.344Z,18.33
2018-05-31T00:25:26.736Z,18.25
2018-05-31T00:27:55.221Z,18.19
2018-05-31T00:30:23.613Z,18.16
2018-05-31T00:32:52.010Z,18.11
2018-05-31T00:35:21.209Z,18.10
2018-05-31T00:37:49.631Z,18.07
2018-05-31T00:40:18.016Z,18.06
2018-05-31T00:42:46.445Z,18.05
2018-05-31T00:45:14.898Z,18.06
2018-05-31T00:47:43.399Z,18.08
2018-05-31T00:50:11.790Z,18.11
2018-05-31T00:52:40.174Z,18.14
2018-05-31T00:55:08.523Z,18.22
2018-05-31T00:57:36.908Z,18.27
2018-05-31T01:00:05.303Z,18.30
2018-05-31T01:02:33.705Z,18.36
2018-05-31T01:05:02.116Z,18.40
2018-05-31T01:07:31.263Z,18.51
2018-05-31T01:09:59.649Z,18.55
2018-05-31T01:12:28.041Z,18.54
2018-05-31T01:14:56.424Z,18.48
2018-05-31T01:17:24.800Z,18.47
2018-05-31T01:19:53.230Z,18.47
2018-05-31T01:22:21.711Z,18.45
2018-05-31T01:24:50.126Z,18.46
2018-05-31T01:27:18.562Z,18.51
2018-05-31T01:29:46.960Z,18.55
2018-05-31T01:32:15.371Z,18.57
2018-05-31T01:34:44.607Z,18.55
2018-05-31T01:37:13.032Z,18.59
2018-05-31T01:39:41.423Z,18.73
2018-05-31T01:42:09.821Z,18.81
2018-05-31T01:44:38.982Z,18.84
2018-05-31T01:47:07.402Z,18.95
2018-05-31T01:49:36.562Z,19.00
2018-05-31T01:52:04.973Z,19.51
2018-05-31T01:54:33.354Z,20.09
2018-05-31T01:57:01.775Z,20.05
2018-05-31T01:59:30.224Z,20.25
2018-05-31T02:01:58.625Z,20.34
2018-05-31T02:04:27.769Z,20.38
2018-05-31T02:06:56.180Z,20.43
2018-05-31T02:09:24.674Z,20.55
2018-05-31T02:11:53.062Z,20.50
2018-05-31T02:14:21.485Z,20.35
2018-05-31T02:16:49.874Z,20.24
2018-05-31T02:19:18.330Z,20.13
2018-05-31T02:21:47.725Z,20.02
2018-05-31T02:24:16.196Z,19.83
2018-05-31T02:26:44.604Z,19.74
2018-05-31T02:29:13.771Z,19.64
2018-05-31T02:31:42.190Z,19.65
2018-05-31T02:34:11.362Z,19.82
2018-05-31T02:36:39.842Z,19.89
2018-05-31T02:39:08.216Z,19.97
2018-05-31T02:41:36.664Z,20.17
2018-05-31T02:44:05.072Z,20.26
2018-05-31T02:46:33.570Z,20.23
2018-05-31T02:49:01.962Z,20.11
2018-05-31T02:51:30.386Z,19.96
2018-05-31T02:53:59.573Z,19.99
2018-05-31T02:56:28.731Z,19.90
2018-05-31T02:58:57.170Z,19.95
2018-05-31T03:01:26.330Z,19.95
2018-05-31T03:03:54.708Z,20.10
2018-05-31T03:06:23.094Z,20.28
2018-05-31T03:08:51.495Z,20.18
2018-05-31T03:11:20.011Z,20.08
2018-05-31T03:13:49.190Z,19.92
2018-05-31T03:16:17.679Z,19.86
2018-05-31T03:18:46.073Z,19.74
2018-05-31T03:21:15.303Z,19.75
2018-05-31T03:23:43.689Z,19.71
2018-05-31T03:26:12.074Z,19.50
2018-05-31T03:28:40.488Z,19.36
2018-05-31T03:31:08.876Z,19.26
2018-05-31T03:33:37.270Z,19.32
2018-05-31T03:36:05.763Z,19.47
2018-05-31T03:38:34.162Z,19.61
2018-05-31T03:41:03.321Z,19.75
2018-05-31T03:43:31.713Z,19.80
2018-05-31T03:46:00.105Z,19.59
2018-05-31T03:48:28.498Z,19.47
2018-05-31T03:50:56.994Z,19.40
2018-05-31T03:53:26.159Z,19.33
2018-05-31T03:55:54.687Z,19.24
2018-05-31T03:58:23.873Z,19.10
2018-05-31T04:00:52.270Z,19.05
2018-05-31T04:03:21.410Z,19.00
2018-05-31T04:05:49.829Z,18.94
2018-05-31T04:08:18.241Z,18.87
2018-05-31T04:10:47.406Z,18.83
2018-05-31T04:13:16.577Z,18.86
2018-05-31T04:15:45.006Z,18.90
2018-05-31T04:18:13.402Z,18.94
2018-05-31T04:20:42.569Z,19.04
2018-05-31T04:23:10.971Z,19.13
2018-05-31T04:25:39.410Z,19.24
2018-05-31T04:28:07.770Z,19.37
2018-05-31T04:30:36.174Z,19.47
2018-05-31T04:33:04.557Z,19.66
2018-05-31T04:35:32.966Z,19.80
2018-05-31T04:38:01.370Z,19.98
2018-05-31T04:40:29.807Z,20.14
2018-05-31T04:42:58.223Z,20.28
2018-05-31T04:45:26.629Z,20.45
2018-05-31T04:47:55.117Z,20.65
2018-05-31T04:50:23.510Z,20.80
2018-05-31T04:52:52.668Z,20.92
2018-05-31T04:55:21.230Z,21.22
2018-05-31T04:57:49.664Z,21.55
2018-05-31T05:00:18.048Z,21.66
2018-05-31T05:02:46.470Z,21.77
2018-05-31T05:05:14.882Z,21.86
2018-05-31T05:07:43.269Z,22.01
2018-05-31T05:10:11.731Z,22.09
2018-05-31T05:12:40.141Z,22.07
2018-05-31T05:15:08.551Z,22.03
2018-05-31T05:17:36.946Z,22.14
2018-05-31T05:20:05.331Z,21.92
2018-05-31T05:22:33.750Z,21.98
2018-05-31T05:25:02.151Z,21.86
2018-05-31T05:27:30.541Z,21.90
2018-05-31T05:29:58.948Z,22.23
2018-05-31T05:32:27.365Z,22.14
2018-05-31T05:34:56.524Z,22.10
2018-05-31T05:37:24.916Z,22.26
2018-05-31T05:39:53.564Z,22.44
2018-05-31T05:42:21.956Z,22.36
2018-05-31T05:44:50.435Z,22.82
2018-05-31T05:47:18.851Z,22.23
2018-05-31T05:49:48.809Z,22.39
2018-05-31T05:52:17.961Z,22.68
2018-05-31T05:54:46.340Z,22.83
2018-05-31T05:57:14.733Z,23.20
2018-05-31T05:59:43.101Z,23.40
2018-05-31T06:02:11.504Z,23.81
2018-05-31T06:04:39.954Z,23.76
2018-05-31T06:07:08.434Z,23.72
2018-05-31T06:09:36.834Z,23.28
2018-05-31T06:12:05.316Z,23.41
2018-05-31T06:14:33.702Z,23.42
2018-05-31T06:17:02.081Z,23.39
2018-05-31T06:19:30.496Z,23.57
2018-05-31T06:21:58.974Z,23.35
2018-05-31T06:24:27.366Z,23.56
2018-05-31T06:26:55.759Z,23.59
2018-05-31T06:29:24.290Z,23.78
2018-05-31T06:31:52.673Z,23.92
2018-05-31T06:34:21.114Z,24.01
2018-05-31T06:36:49.489Z,23.81
2018-05-31T06:39:17.873Z,24.25
2018-05-31T06:41:46.283Z,24.70
2018-05-31T06:44:15.429Z,24.45
2018-05-31T06:46:43.824Z,24.59
2018-05-31T06:49:12.210Z,24.49
2018-05-31T06:51:40.631Z,24.74
2018-05-31T06:54:09.773Z,24.69
2018-05-31T06:56:38.169Z,25.52
2018-05-31T06:59:06.590Z,25.80
2018-05-31T07:01:35.784Z,25.68
2018-05-31T07:04:04.179Z,24.89
2018-05-31T07:06:33.340Z,25.27
2018-05-31T07:09:01.734Z,24.81
2018-05-31T07:11:30.165Z,25.15
2018-05-31T07:13:58.554Z,25.21
2018-05-31T07:16:27.007Z,25.83
2018-05-31T07:18:55.409Z,25.75
2018-05-31T07:21:24.557Z,26.65
2018-05-31T07:23:53.741Z,26.88
2018-05-31T07:26:22.135Z,26.13
2018-05-31T07:28:50.546Z,26.71
2018-05-31T07:31:18.976Z,26.56
2018-05-31T07:33:47.376Z,26.69
2018-05-31T07:36:15.875Z,26.03
2018-05-31T07:38:45.021Z,26.39
2018-05-31T07:41:13.388Z,25.75
2018-05-31T07:43:41.816Z,25.75
2018-05-31T07:46:11.029Z,25.76
2018-05-31T07:48:39.412Z,25.44
2018-05-31T07:51:07.791Z,25.43
2018-05-31T07:53:36.232Z,25.69
2018-05-31T07:56:04.605Z,25.79
2018-05-31T07:58:33.005Z,25.61
2018-05-31T08:01:02.179Z,25.20
2018-05-31T08:03:30.550Z,25.42
2018-05-31T08:05:58.948Z,25.35
2018-05-31T08:08:27.366Z,25.84
2018-05-31T08:10:56.525Z,25.94
2018-05-31T08:13:25.016Z,25.50
2018-05-31T08:15:53.423Z,25.53
2018-05-31T08:18:21.872Z,25.25
2018-05-31T08:20:50.263Z,25.48
2018-05-31T08:23:18.650Z,25.10
2018-05-31T08:25:47.056Z,25.30
2018-05-31T08:28:15.461Z,25.09
2018-05-31T08:30:44.651Z,25.09
2018-05-31T08:33:13.053Z,25.20
2018-05-31T08:35:42.270Z,25.52
2018-05-31T08:38:10.698Z,25.29
2018-05-31T08:40:39.114Z,24.91
2018-05-31T08:43:08.318Z,24.62
2018-05-31T08:45:37.457Z,24.51
2018-05-31T08:48:05.854Z,24.51
2018-05-31T08:50:34.250Z,24.26
2018-05-31T08:53:02.670Z,24.62
2018-05-31T08:55:31.874Z,24.40
2018-05-31T08:58:01.042Z,24.70
2018-05-31T09:00:29.528Z,24.68
2018-05-31T09:02:57.926Z,25.67
2018-05-31T09:05:26.340Z,25.81
2018-05-31T09:07:56.119Z,25.78
2018-05-31T09:10:24.546Z,25.70
2018-05-31T09:12:53.025Z,25.60
2018-05-31T09:15:21.428Z,25.40
2018-05-31T09:17:49.846Z,25.46
2018-05-31T09:20:18.250Z,25.75
2018-05-31T09:22:46.670Z,25.47
2018-05-31T09:25:15.068Z,25.47
2018-05-31T09:27:43.555Z,25.55
2018-05-31T09:30:11.978Z,25.49
2018-05-31T09:32:40.365Z,25.53
2018-05-31T09:35:08.789Z,25.81
2018-05-31T09:37:37.186Z,25.87
2018-05-31T09:40:06.528Z,25.86
2018-05-31T09:42:35.693Z,25.93
2018-05-31T09:45:04.106Z,25.98
2018-05-31T09:47:32.542Z,26.25
2018-05-31T09:50:00.963Z,26.62
2018-05-31T09:52:29.410Z,26.66
2018-05-31T09:54:57.818Z,27.17
2018-05-31T09:57:26.264Z,27.67
2018-05-31T09:59:54.766Z,27.76
2018-05-31T10:02:23.263Z,27.98
2018-05-31T10:04:51.670Z,29.23
2018-05-31T10:07:20.904Z,29.31
2018-05-31T10:09:49.292Z,30.35
2018-05-31T10:12:17.676Z,30.86
2018-05-31T10:14:46.836Z,32.34
2018-05-31T10:17:15.313Z,32.00
2018-05-31T10:19:43.696Z,32.01
2018-05-31T10:22:12.113Z,31.66
2018-05-31T10:24:40.508Z,31.86
2018-05-31T10:27:08.937Z,32.87
2018-05-31T10:29:37.346Z,32.74
2018-05-31T10:32:05.778Z,33.28
2018-05-31T10:34:34.976Z,33.33
2018-05-31T10:37:04.249Z,33.16
2018-05-31T10:39:32.696Z,33.18
2018-05-31T10:42:01.032Z,34.40
2018-05-31T10:44:29.513Z,33.83
2018-05-31T10:46:57.996Z,34.57
2018-05-31T10:49:26.392Z,34.58
2018-05-31T10:51:55.603Z,35.22
2018-05-31T10:54:24.754Z,33.40
2018-05-31T10:56:53.173Z,34.09
2018-05-31T10:59:21.591Z,34.50
2018-05-31T11:01:50.765Z,34.63
2018-05-31T11:04:19.929Z,34.43
2018-05-31T11:06:48.328Z,33.22
2018-05-31T11:09:16.705Z,34.45
2018-05-31T11:11:45.877Z,32.75
2018-05-31T11:14:14.274Z,33.06
2018-05-31T11:16:42.661Z,34.34
2018-05-31T11:19:11.069Z,34.20
2018-05-31T11:21:39.516Z,33.17
2018-05-31T11:24:08.622Z,32.90
2018-05-31T11:26:37.134Z,32.24
2018-05-31T11:29:05.573Z,32.61
2018-05-31T11:31:33.956Z,31.71
2018-05-31T11:34:02.367Z,31.31
2018-05-31T11:36:30.771Z,32.25
2018-05-31T11:38:59.201Z,33.58
2018-05-31T11:41:27.595Z,32.49
2018-05-31T11:43:56.018Z,34.42
2018-05-31T11:46:24.445Z,33.91
2018-05-31T11:48:53.713Z,34.06
2018-05-31T11:51:22.145Z,33.92
2018-05-31T11:53:50.639Z,32.89
2018-05-31T11:56:19.185Z,32.30
2018-05-31T11:58:47.618Z,30.74
2018-05-31T12:01:16.055Z,29.65
2018-05-31T12:03:45.312Z,28.58
2018-05-31T12:06:13.790Z,28.17
2018-05-31T12:08:44.664Z,27.81
2018-05-31T12:11:13.859Z,27.41
2018-05-31T12:13:42.268Z,26.89
2018-05-31T12:16:11.445Z,26.09
2018-05-31T12:18:39.862Z,25.60
2018-05-31T12:21:09.118Z,25.53
2018-05-31T12:23:37.532Z,25.89
2018-05-31T12:26:05.924Z,27.59
2018-05-31T12:28:35.059Z,28.29
2018-05-31T12:31:03.487Z,29.25
2018-05-31T12:33:31.898Z,30.00
2018-05-31T12:36:01.246Z,30.29
2018-05-31T12:38:29.861Z,29.90
2018-05-31T12:40:58.224Z,30.40
2018-05-31T12:43:26.684Z,31.01
2018-05-31T12:45:55.085Z,31.17
2018-05-31T12:48:23.477Z,30.55
2018-05-31T12:50:51.901Z,32.00
2018-05-31T12:53:21.067Z,32.48
2018-05-31T12:55:49.447Z,31.77
2018-05-31T12:58:17.847Z,32.58
2018-05-31T13:00:46.236Z,31.98
2018-05-31T13:03:14.617Z,32.25
2018-05-31T13:05:44.719Z,32.46
2018-05-31T13:08:13.078Z,33.54
2018-05-31T13:10:41.650Z,33.24
2018-05-31T13:13:10.451Z,32.60
2018-05-31T13:15:38.898Z,33.19
2018-05-31T13:18:07.342Z,32.75
2018-05-31T13:20:35.791Z,33.52
2018-05-31T13:23:04.606Z,34.88
2018-05-31T13:25:33.044Z,33.45
2018-05-31T13:28:01.454Z,33.19
2018-05-31T13:30:29.844Z,34.15
2018-05-31T13:32:58.230Z,34.87
2018-05-31T13:35:27.398Z,34.37
2018-05-31T13:37:56.576Z,34.19
2018-05-31T13:40:24.982Z,33.48
2018-05-31T13:42:53.397Z,35.05
2018-05-31T13:45:21.786Z,34.74
2018-05-31T13:47:50.277Z,33.25
2018-05-31T13:50:18.649Z,35.97
2018-05-31T13:52:47.098Z,35.75
2018-05-31T13:55:15.501Z,34.56
2018-05-31T13:57:44.672Z,36.69
2018-05-31T14:00:13.083Z,33.83
2018-05-31T14:02:42.221Z,36.51
2018-05-31T14:05:10.657Z,35.16
2018-05-31T14:07:39.069Z,35.45
2018-05-31T14:10:07.517Z,36.57
2018-05-31T14:12:37.410Z,36.63
2018-05-31T14:15:06.172Z,36.40
2018-05-31T14:17:34.627Z,34.15
2018-05-31T14:20:03.807Z,35.43
2018-05-31T14:22:32.242Z,36.49
2018-05-31T14:25:00.651Z,37.49
2018-05-31T14:27:29.048Z,37.93
2018-05-31T14:29:57.393Z,36.92
2018-05-31T14:32:25.803Z,35.37
2018-05-31T14:34:54.230Z,37.40
2018-05-31T14:37:23.386Z,37.68
2018-05-31T14:39:51.806Z,37.79
2018-05-31T14:42:20.223Z,34.92
2018-05-31T14:44:48.681Z,33.22
2018-05-31T14:47:17.910Z,30.92
2018-05-31T14:49:46.275Z,30.56
2018-05-31T14:52:15.484Z,30.33
2018-05-31T14:54:44.653Z,29.69
2018-05-31T14:57:13.042Z,31.14
2018-05-31T14:59:41.491Z,33.05
2018-05-31T15:02:09.873Z,35.16
2018-05-31T15:04:38.276Z,35.53
2018-05-31T15:07:06.661Z,37.00
2018-05-31T15:09:35.078Z,38.64
2018-05-31T15:12:03.480Z,35.76
2018-05-31T15:14:31.847Z,36.49
2018-05-31T15:17:01.033Z,36.60
2018-05-31T15:19:29.421Z,37.40
2018-05-31T15:21:58.597Z,38.65
2018-05-31T15:24:27.012Z,38.59
2018-05-31T15:26:56.177Z,37.18
2018-05-31T15:29:24.566Z,36.44
2018-05-31T15:31:53.044Z,37.32
2018-05-31T15:34:21.547Z,38.02
2018-05-31T15:36:49.957Z,37.58
2018-05-31T15:39:19.127Z,38.53
2018-05-31T15:41:47.567Z,38.37
2018-05-31T15:44:15.972Z,37.65
2018-05-31T15:46:44.359Z,37.62
2018-05-31T15:49:12.771Z,35.79
2018-05-31T15:51:41.187Z,36.50
2018-05-31T15:54:09.615Z,36.95
2018-05-31T15:56:37.991Z,36.97
2018-05-31T15:59:06.410Z,37.28
2018-05-31T16:01:35.813Z,36.18
2018-05-31T16:04:04.213Z,36.65
2018-05-31T16:06:33.365Z,35.35
2018-05-31T16:09:01.787Z,35.93
2018-05-31T16:11:30.186Z,35.63
2018-05-31T16:13:59.380Z,34.52
2018-05-31T16:16:27.777Z,34.04
2018-05-31T16:18:56.199Z,32.95
2018-05-31T16:21:24.629Z,32.68
2018-05-31T16:23:53.834Z,32.16
2018-05-31T16:26:23.074Z,31.08
2018-05-31T16:28:51.474Z,30.42
2018-05-31T16:31:19.941Z,30.07
2018-05-31T16:33:48.325Z,30.12
2018-05-31T16:36:16.710Z,30.03
2018-05-31T16:38:45.123Z,29.70
2018-05-31T16:41:13.517Z,29.71
2018-05-31T16:43:41.937Z,29.44
2018-05-31T16:46:12.029Z,29.27
2018-05-31T16:48:40.534Z,28.89
2018-05-31T16:51:09.565Z,29.04
2018-05-31T16:53:37.960Z,28.66
2018-05-31T16:56:06.391Z,28.50
2018-05-31T16:58:35.542Z,28.72
2018-05-31T17:01:03.914Z,28.62
2018-05-31T17:03:32.340Z,28.79
2018-05-31T17:06:00.731Z,28.85
2018-05-31T17:08:29.101Z,28.74
2018-05-31T17:10:57.495Z,28.44
2018-05-31T17:13:25.894Z,28.49
2018-05-31T17:15:55.067Z,28.45
2018-05-31T17:18:23.495Z,28.49
2018-05-31T17:20:52.662Z,28.30
2018-05-31T17:23:21.066Z,28.08
2018-05-31T17:25:50.200Z,28.01
2018-05-31T17:28:18.586Z,28.14
2018-05-31T17:30:46.980Z,28.05
2018-05-31T17:33:15.376Z,28.17
2018-05-31T17:35:43.847Z,28.17
2018-05-31T17:38:12.286Z,28.22
2018-05-31T17:40:41.484Z,27.98
2018-05-31T17:43:09.959Z,27.76
2018-05-31T17:45:38.366Z,27.67
2018-05-31T17:48:07.618Z,27.65
2018-05-31T17:50:36.021Z,27.66
2018-05-31T17:53:04.535Z,27.56
2018-05-31T17:55:33.734Z,27.36
2018-05-31T17:58:02.916Z,27.46
2018-05-31T18:00:31.321Z,27.44
2018-05-31T18:02:59.785Z,27.31
2018-05-31T18:05:28.200Z,27.03
2018-05-31T18:07:57.428Z,27.20
2018-05-31T18:10:25.828Z,27.30
2018-05-31T18:12:54.216Z,26.95
2018-05-31T18:15:23.380Z,26.69
2018-05-31T18:17:51.856Z,26.58
2018-05-31T18:20:20.345Z,26.55
2018-05-31T18:22:48.735Z,26.60
2018-05-31T18:25:17.148Z,26.57
2018-05-31T18:27:45.581Z,26.44
2018-05-31T18:30:14.771Z,26.34
2018-05-31T18:32:43.141Z,26.39
2018-05-31T18:35:11.517Z,26.33
2018-05-31T18:37:40.008Z,26.12
2018-05-31T18:40:08.404Z,25.93
2018-05-31T18:42:36.793Z,25.94
2018-05-31T18:45:05.950Z,25.73
2018-05-31T18:47:34.361Z,25.71
2018-05-31T18:50:02.739Z,25.57
2018-05-31T18:52:31.114Z,25.38
2018-05-31T18:54:59.515Z,25.21
2018-05-31T18:57:27.939Z,25.18
2018-05-31T18:59:56.366Z,25.10
2018-05-31T19:02:24.757Z,24.92
2018-05-31T19:04:53.149Z,24.78
2018-05-31T19:07:21.522Z,24.65
2018-05-31T19:09:49.937Z,24.52
2018-05-31T19:12:24.426Z,24.41
2018-05-31T19:14:52.803Z,24.31
2018-05-31T19:17:21.217Z,24.23
2018-05-31T19:19:55.205Z,24.16
2018-05-31T19:22:23.579Z,24.14
2018-05-31T19:24:57.358Z,24.19
2018-05-31T19:27:25.746Z,24.22
2018-05-31T19:29:59.631Z,24.25
2018-05-31T19:32:28.053Z,24.24
2018-05-31T19:34:56.443Z,24.26
2018-05-31T19:37:24.842Z,24.28
2018-05-31T19:42:21.167Z,24.26
2018-05-31T19:44:49.586Z,24.21
2018-05-31T19:47:18.022Z,24.22
2018-05-31T19:49:46.455Z,24.07
2018-05-31T19:52:20.212Z,23.95
2018-05-31T19:54:48.647Z,23.89
2018-05-31T19:57:17.135Z,23.78
2018-05-31T19:59:51.764Z,23.68
2018-05-31T20:02:25.618Z,23.63
2018-05-31T20:04:54.105Z,23.55
2018-05-31T20:07:22.580Z,23.46
2018-05-31T20:09:51.078Z,23.38
2018-05-31T20:12:21.257Z,23.35
2018-05-31T20:14:47.867Z,23.35
2018-05-31T20:17:16.295Z,23.31
2018-05-31T20:19:45.479Z,23.24
2018-05-31T20:22:13.895Z,23.18
2018-05-31T20:24:42.383Z,23.19
2018-05-31T20:27:11.562Z,23.20
2018-05-31T20:29:40.747Z,23.20
2018-05-31T20:32:09.130Z,23.17
2018-05-31T20:34:37.610Z,23.10
2018-05-31T20:37:06.359Z,23.06
2018-05-31T20:39:34.766Z,23.00
2018-05-31T20:42:03.211Z,22.95
2018-05-31T20:44:31.945Z,22.92
2018-05-31T20:47:00.366Z,22.90
2018-05-31T20:49:29.594Z,22.89
2018-05-31T20:51:58.085Z,22.87
2018-05-31T20:54:26.497Z,22.83
2018-05-31T20:56:54.947Z,22.77
2018-05-31T20:59:23.397Z,22.72
2018-05-31T21:01:51.951Z,22.63
2018-05-31T21:04:20.363Z,22.53
2018-05-31T21:06:48.786Z,22.43
2018-05-31T21:09:17.179Z,22.35
2018-05-31T21:11:45.726Z,22.30
2018-05-31T21:14:14.066Z,22.24
2018-05-31T21:16:42.465Z,22.20
2018-05-31T21:19:10.890Z,22.17
2018-05-31T21:21:40.089Z,22.13
2018-05-31T21:24:09.293Z,22.07
2018-05-31T21:26:38.458Z,21.99
2018-05-31T21:29:06.877Z,21.92
2018-05-31T21:31:36.054Z,21.92
2018-05-31T21:34:04.447Z,21.85
2018-05-31T21:36:32.854Z,21.80
2018-05-31T21:39:02.007Z,21.80
2018-05-31T21:41:30.454Z,21.74
2018-05-31T21:43:58.889Z,21.80
2018-05-31T21:46:27.359Z,21.80
2018-05-31T21:48:55.792Z,21.69
2018-05-31T21:51:24.184Z,21.59
2018-05-31T21:53:52.601Z,21.52
2018-05-31T21:56:21.001Z,21.46
2018-05-31T21:58:49.409Z,21.41
2018-05-31T22:01:18.562Z,21.42
2018-05-31T22:03:46.977Z,21.36
2018-05-31T22:06:15.583Z,21.28
2018-05-31T22:08:44.736Z,21.21
2018-05-31T22:11:13.143Z,21.15
2018-05-31T22:13:41.559Z,21.17
2018-05-31T22:16:10.746Z,21.15
2018-05-31T22:18:39.173Z,21.15
2018-05-31T22:21:07.546Z,21.10
2018-05-31T22:23:35.973Z,21.07
2018-05-31T22:26:04.385Z,21.07
2018-05-31T22:28:33.557Z,21.03
2018-05-31T22:31:02.782Z,21.03
2018-05-31T22:33:31.186Z,20.99
2018-05-31T22:36:00.362Z,21.00
2018-05-31T22:38:28.766Z,21.00
2018-05-31T22:40:57.925Z,21.03
2018-05-31T22:43:26.340Z,20.94
2018-05-31T22:45:55.582Z,20.97
2018-05-31T22:48:24.063Z,20.85
2018-05-31T22:50:52.453Z,20.74
2018-05-31T22:53:20.850Z,20.65
2018-05-31T22:55:49.251Z,20.58
2018-05-31T22:58:17.710Z,20.51
2018-05-31T23:00:46.145Z,20.42
2018-05-31T23:03:15.299Z,20.35
2018-05-31T23:05:43.698Z,20.27
2018-05-31T23:08:12.108Z,20.20
2018-05-31T23:10:40.515Z,20.16
2018-05-31T23:13:09.662Z,20.13
2018-05-31T23:15:38.068Z,20.11
2018-05-31T23:18:06.487Z,20.10
2018-05-31T23:20:34.916Z,20.10
2018-05-31T23:23:03.337Z,20.11
2018-05-31T23:25:32.625Z,20.07
2018-05-31T23:28:01.028Z,20.10
2018-05-31T23:30:30.183Z,20.08
2018-05-31T23:32:58.590Z,20.06
2018-05-31T23:35:26.998Z,20.03
2018-05-31T23:37:56.163Z,20.04
2018-05-31T23:40:24.576Z,20.04
2018-05-31T23:42:53.727Z,20.07
2018-05-31T23:45:22.137Z,20.05
2018-05-31T23:47:50.607Z,20.01
2018-05-31T23:50:18.994Z,19.99
2018-05-31T23:52:47.411Z,19.96
2018-05-31T23:55:15.801Z,19.98
2018-05-31T23:57:44.970Z,19.99
